Home PIREPS Pireps

Flight SAB4878

  • Submitted By: Vincent Fourni
  • Departure Airport: Lyon-Saint-Exupery (LFLL)
  • Arrival Airport: Cote d'Azur International Airport (LFMN)
  • Aircraft: B737-500 (OO-SAB)
  • Flight Time: 01.17
  • Date Submitted: 14/09/2018
  • Status: Accepted
Flight Details
Gross Revenue:
(122 load / € 0.00 per unit
€ 0.00
Fuel Cost:
(3323 fuel used @ 5.1 / unit)
€ 16,947.30

Additional Log Information:

View Log

Aircraft Used in flight is PMDG 737-800NGX Brussels Airlines Winglets
22:08 Brakes are On
22:09 Brakes are Released
22:17 You Took off @ 158 Knots and Flaps at Position 3
Departure Weather
LFLL 142000Z 34006KT CAVOK 20/11 Q1021 NOSIGrn
22:19 Landing Gear Up @ 176 Knots and 4440 Feet
22:21 Above FL100 you need to switch of the landing lights
23:10 Above FL100 you need to switch of the landing lights
23:17 Landing Gear Down @ 160 Knots and 3870 Feet
23:23 You Landed @ 129 Knots and with -350 Vertical Speed
Arrival Weather
LFMN 142100Z 04003KT 9999 SCT015 24/20 Q1016 NOSIGrn
23:23 Paused
23:25 Unpaused
23:25 Brakes are On
23:26 Brussels Bel-Track1.0.1.2

Route Map

Corporate About Us Our Team Vacancies Information Fleet Route Network Rules and Regulations Operations Flight Schedules Event Center Tours Partners IVAO Vatsim Acars dev FSCB

fb Users Online Belgium Dominique Dory, South Africa Marc Toussaint,
2 Pilot(s) and 139 Guest(s) Online
CMS by phpVMS - Design by Crazycreatives.com - Copyright © 2020 - Brussels Airlines Virtual